sensor_id;sensor_type;location;lat;lon;timestamp;P1;durP1;ratioP1;P2;durP2;ratioP2
66437;SDS011;54537;47.972;11.662;2023-01-19T00:00:33;15.98;;;5.70;;
66437;SDS011;54537;47.972;11.662;2023-01-19T00:02:59;17.80;;;6.63;;
66437;SDS011;54537;47.972;11.662;2023-01-19T00:05:26;21.60;;;7.70;;
66437;SDS011;54537;47.972;11.662;2023-01-19T00:07:52;18.58;;;6.78;;
66437;SDS011;54537;47.972;11.662;2023-01-19T00:10:19;16.55;;;6.03;;
66437;SDS011;54537;47.972;11.662;2023-01-19T00:12:45;19.00;;;7.15;;
66437;SDS011;54537;47.972;11.662;2023-01-19T00:15:13;14.02;;;6.13;;
66437;SDS011;54537;47.972;11.662;2023-01-19T00:17:39;18.23;;;7.55;;
66437;SDS011;54537;47.972;11.662;2023-01-19T00:20:07;14.80;;;5.97;;
66437;SDS011;54537;47.972;11.662;2023-01-19T00:22:34;15.50;;;6.03;;
66437;SDS011;54537;47.972;11.662;2023-01-19T00:25:00;15.00;;;6.05;;
66437;SDS011;54537;47.972;11.662;2023-01-19T00:27:27;17.67;;;6.32;;
66437;SDS011;54537;47.972;11.662;2023-01-19T00:29:54;15.48;;;5.82;;
66437;SDS011;54537;47.972;11.662;2023-01-19T00:32:22;17.35;;;6.18;;
66437;SDS011;54537;47.972;11.662;2023-01-19T00:34:48;15.20;;;6.07;;
66437;SDS011;54537;47.972;11.662;2023-01-19T00:37:16;15.90;;;5.80;;
66437;SDS011;54537;47.972;11.662;2023-01-19T00:39:42;17.27;;;6.15;;
66437;SDS011;54537;47.972;11.662;2023-01-19T00:42:10;17.60;;;6.93;;
66437;SDS011;54537;47.972;11.662;2023-01-19T00:44:54;17.80;;;6.72;;
66437;SDS011;54537;47.972;11.662;2023-01-19T00:47:22;16.63;;;6.20;;
66437;SDS011;54537;47.972;11.662;2023-01-19T00:49:48;19.10;;;6.35;;
66437;SDS011;54537;47.972;11.662;2023-01-19T00:52:15;17.02;;;5.90;;
66437;SDS011;54537;47.972;11.662;2023-01-19T00:54:41;15.05;;;5.65;;
66437;SDS011;54537;47.972;11.662;2023-01-19T00:57:08;14.52;;;5.47;;
66437;SDS011;54537;47.972;11.662;2023-01-19T00:59:34;16.50;;;6.43;;
66437;SDS011;54537;47.972;11.662;2023-01-19T01:02:01;13.65;;;4.82;;
66437;SDS011;54537;47.972;11.662;2023-01-19T01:04:28;16.42;;;5.35;;
66437;SDS011;54537;47.972;11.662;2023-01-19T01:06:55;11.68;;;4.63;;
66437;SDS011;54537;47.972;11.662;2023-01-19T01:09:21;14.95;;;5.38;;
66437;SDS011;54537;47.972;11.662;2023-01-19T01:11:48;17.40;;;5.93;;
66437;SDS011;54537;47.972;11.662;2023-01-19T01:14:15;15.95;;;6.03;;
66437;SDS011;54537;47.972;11.662;2023-01-19T01:16:42;18.20;;;6.47;;
66437;SDS011;54537;47.972;11.662;2023-01-19T01:19:08;14.07;;;6.07;;
66437;SDS011;54537;47.972;11.662;2023-01-19T01:21:36;19.23;;;6.32;;
66437;SDS011;54537;47.972;11.662;2023-01-19T01:24:02;15.73;;;6.38;;
66437;SDS011;54537;47.972;11.662;2023-01-19T01:26:29;16.23;;;6.28;;
66437;SDS011;54537;47.972;11.662;2023-01-19T01:28:55;16.75;;;6.20;;
66437;SDS011;54537;47.972;11.662;2023-01-19T01:31:22;12.50;;;5.47;;
66437;SDS011;54537;47.972;11.662;2023-01-19T01:33:48;12.82;;;5.32;;
66437;SDS011;54537;47.972;11.662;2023-01-19T01:36:15;13.85;;;5.05;;
66437;SDS011;54537;47.972;11.662;2023-01-19T01:38:44;15.65;;;5.70;;
66437;SDS011;54537;47.972;11.662;2023-01-19T01:41:10;13.60;;;5.20;;
66437;SDS011;54537;47.972;11.662;2023-01-19T01:43:41;14.27;;;5.45;;
66437;SDS011;54537;47.972;11.662;2023-01-19T01:46:09;13.80;;;5.70;;
66437;SDS011;54537;47.972;11.662;2023-01-19T01:48:35;15.73;;;6.18;;
66437;SDS011;54537;47.972;11.662;2023-01-19T01:51:03;13.13;;;5.30;;
66437;SDS011;54537;47.972;11.662;2023-01-19T01:53:53;15.32;;;5.32;;
66437;SDS011;54537;47.972;11.662;2023-01-19T01:56:25;15.93;;;5.43;;
66437;SDS011;54537;47.972;11.662;2023-01-19T01:58:56;14.90;;;5.80;;
66437;SDS011;54537;47.972;11.662;2023-01-19T02:01:23;12.93;;;4.55;;
66437;SDS011;54537;47.972;11.662;2023-01-19T02:04:07;9.65;;;4.28;;
66437;SDS011;54537;47.972;11.662;2023-01-19T02:06:34;15.23;;;5.30;;
66437;SDS011;54537;47.972;11.662;2023-01-19T02:09:20;13.07;;;5.15;;
66437;SDS011;54537;47.972;11.662;2023-01-19T02:12:04;12.23;;;4.78;;
66437;SDS011;54537;47.972;11.662;2023-01-19T02:14:49;15.48;;;5.25;;
66437;SDS011;54537;47.972;11.662;2023-01-19T02:17:15;13.52;;;4.90;;
66437;SDS011;54537;47.972;11.662;2023-01-19T02:19:42;11.80;;;4.75;;
66437;SDS011;54537;47.972;11.662;2023-01-19T02:22:10;16.38;;;6.43;;
66437;SDS011;54537;47.972;11.662;2023-01-19T02:24:41;13.95;;;5.68;;
66437;SDS011;54537;47.972;11.662;2023-01-19T02:27:08;15.38;;;6.40;;
66437;SDS011;54537;47.972;11.662;2023-01-19T02:29:35;14.73;;;6.20;;
66437;SDS011;54537;47.972;11.662;2023-01-19T02:32:01;16.65;;;6.10;;
66437;SDS011;54537;47.972;11.662;2023-01-19T02:34:29;16.10;;;5.75;;
66437;SDS011;54537;47.972;11.662;2023-01-19T02:36:57;10.77;;;4.32;;
66437;SDS011;54537;47.972;11.662;2023-01-19T02:39:26;13.25;;;4.63;;
66437;SDS011;54537;47.972;11.662;2023-01-19T02:41:58;15.85;;;4.95;;
66437;SDS011;54537;47.972;11.662;2023-01-19T02:44:26;11.98;;;4.00;;
66437;SDS011;54537;47.972;11.662;2023-01-19T02:46:54;9.10;;;3.90;;
66437;SDS011;54537;47.972;11.662;2023-01-19T02:49:21;13.27;;;4.72;;
66437;SDS011;54537;47.972;11.662;2023-01-19T02:51:48;10.43;;;4.40;;
66437;SDS011;54537;47.972;11.662;2023-01-19T02:54:26;16.67;;;4.85;;
66437;SDS011;54537;47.972;11.662;2023-01-19T02:59:48;10.18;;;3.80;;
66437;SDS011;54537;47.972;11.662;2023-01-19T03:02:24;12.77;;;4.55;;
66437;SDS011;54537;47.972;11.662;2023-01-19T03:04:58;12.70;;;4.38;;
66437;SDS011;54537;47.972;11.662;2023-01-19T03:07:30;10.68;;;4.43;;
66437;SDS011;54537;47.972;11.662;2023-01-19T03:10:03;11.90;;;5.10;;
66437;SDS011;54537;47.972;11.662;2023-01-19T03:12:34;11.93;;;4.03;;
66437;SDS011;54537;47.972;11.662;2023-01-19T03:15:08;9.65;;;4.00;;
66437;SDS011;54537;47.972;11.662;2023-01-19T03:17:38;13.02;;;4.55;;
66437;SDS011;54537;47.972;11.662;2023-01-19T03:20:06;12.07;;;5.72;;
66437;SDS011;54537;47.972;11.662;2023-01-19T03:22:34;17.23;;;5.10;;
66437;SDS011;54537;47.972;11.662;2023-01-19T03:25:00;14.45;;;4.95;;
66437;SDS011;54537;47.972;11.662;2023-01-19T03:27:28;10.63;;;4.65;;
66437;SDS011;54537;47.972;11.662;2023-01-19T03:29:58;12.98;;;4.40;;
66437;SDS011;54537;47.972;11.662;2023-01-19T03:32:27;9.52;;;4.38;;
66437;SDS011;54537;47.972;11.662;2023-01-19T03:34:55;8.55;;;3.85;;
66437;SDS011;54537;47.972;11.662;2023-01-19T03:37:22;10.98;;;4.53;;
66437;SDS011;54537;47.972;11.662;2023-01-19T03:39:49;11.45;;;4.50;;
66437;SDS011;54537;47.972;11.662;2023-01-19T03:42:16;10.75;;;4.25;;
66437;SDS011;54537;47.972;11.662;2023-01-19T03:44:43;9.93;;;3.85;;
66437;SDS011;54537;47.972;11.662;2023-01-19T03:47:15;10.98;;;4.72;;
66437;SDS011;54537;47.972;11.662;2023-01-19T03:49:42;12.68;;;4.90;;
66437;SDS011;54537;47.972;11.662;2023-01-19T03:52:10;14.68;;;5.43;;
66437;SDS011;54537;47.972;11.662;2023-01-19T03:54:37;12.02;;;4.68;;
66437;SDS011;54537;47.972;11.662;2023-01-19T03:57:04;11.23;;;5.05;;
66437;SDS011;54537;47.972;11.662;2023-01-19T03:59:31;12.23;;;5.70;;
66437;SDS011;54537;47.972;11.662;2023-01-19T04:01:58;12.40;;;5.60;;
66437;SDS011;54537;47.972;11.662;2023-01-19T04:04:26;14.23;;;6.50;;
66437;SDS011;54537;47.972;11.662;2023-01-19T04:06:52;12.00;;;5.05;;
66437;SDS011;54537;47.972;11.662;2023-01-19T04:09:19;14.98;;;6.07;;
66437;SDS011;54537;47.972;11.662;2023-01-19T04:11:45;14.82;;;5.63;;
66437;SDS011;54537;47.972;11.662;2023-01-19T04:14:12;13.75;;;5.18;;
66437;SDS011;54537;47.972;11.662;2023-01-19T04:16:38;11.13;;;4.53;;
66437;SDS011;54537;47.972;11.662;2023-01-19T04:19:05;13.35;;;5.82;;
66437;SDS011;54537;47.972;11.662;2023-01-19T04:21:32;11.82;;;5.60;;
66437;SDS011;54537;47.972;11.662;2023-01-19T04:23:59;14.65;;;5.57;;
66437;SDS011;54537;47.972;11.662;2023-01-19T04:26:25;13.13;;;4.93;;
66437;SDS011;54537;47.972;11.662;2023-01-19T04:28:52;14.52;;;5.63;;
66437;SDS011;54537;47.972;11.662;2023-01-19T04:31:19;21.20;;;5.72;;
66437;SDS011;54537;47.972;11.662;2023-01-19T04:33:47;12.43;;;5.38;;
66437;SDS011;54537;47.972;11.662;2023-01-19T04:36:13;13.00;;;5.82;;
66437;SDS011;54537;47.972;11.662;2023-01-19T04:38:41;20.30;;;6.63;;
66437;SDS011;54537;47.972;11.662;2023-01-19T04:41:08;13.02;;;5.00;;
66437;SDS011;54537;47.972;11.662;2023-01-19T04:43:34;14.63;;;6.10;;
66437;SDS011;54537;47.972;11.662;2023-01-19T04:46:01;12.63;;;5.45;;
66437;SDS011;54537;47.972;11.662;2023-01-19T04:48:28;14.63;;;5.32;;
66437;SDS011;54537;47.972;11.662;2023-01-19T04:50:54;13.98;;;5.85;;
66437;SDS011;54537;47.972;11.662;2023-01-19T04:53:21;10.95;;;4.32;;
66437;SDS011;54537;47.972;11.662;2023-01-19T04:55:52;15.98;;;5.85;;
66437;SDS011;54537;47.972;11.662;2023-01-19T05:00:46;15.05;;;5.75;;
66437;SDS011;54537;47.972;11.662;2023-01-19T05:03:12;8.65;;;4.03;;
66437;SDS011;54537;47.972;11.662;2023-01-19T05:05:38;13.25;;;5.15;;
66437;SDS011;54537;47.972;11.662;2023-01-19T05:08:05;16.48;;;5.72;;
66437;SDS011;54537;47.972;11.662;2023-01-19T05:10:31;14.80;;;6.03;;
66437;SDS011;54537;47.972;11.662;2023-01-19T05:12:59;14.85;;;6.22;;
66437;SDS011;54537;47.972;11.662;2023-01-19T05:15:26;16.95;;;6.50;;
66437;SDS011;54537;47.972;11.662;2023-01-19T05:17:52;16.67;;;5.80;;
66437;SDS011;54537;47.972;11.662;2023-01-19T05:20:19;19.52;;;6.55;;
66437;SDS011;54537;47.972;11.662;2023-01-19T05:22:47;15.20;;;6.47;;
66437;SDS011;54537;47.972;11.662;2023-01-19T05:25:14;14.50;;;5.78;;
66437;SDS011;54537;47.972;11.662;2023-01-19T05:27:41;14.63;;;5.18;;
66437;SDS011;54537;47.972;11.662;2023-01-19T05:30:10;12.60;;;5.65;;
66437;SDS011;54537;47.972;11.662;2023-01-19T05:32:38;21.25;;;6.20;;
66437;SDS011;54537;47.972;11.662;2023-01-19T05:35:05;15.27;;;6.43;;
66437;SDS011;54537;47.972;11.662;2023-01-19T05:37:32;17.48;;;6.57;;
66437;SDS011;54537;47.972;11.662;2023-01-19T05:39:59;14.70;;;5.72;;
66437;SDS011;54537;47.972;11.662;2023-01-19T05:42:25;18.35;;;5.95;;
66437;SDS011;54537;47.972;11.662;2023-01-19T05:44:51;22.98;;;6.68;;
66437;SDS011;54537;47.972;11.662;2023-01-19T05:47:19;16.27;;;6.88;;
66437;SDS011;54537;47.972;11.662;2023-01-19T05:49:46;17.52;;;6.25;;
66437;SDS011;54537;47.972;11.662;2023-01-19T05:52:12;15.38;;;6.85;;
66437;SDS011;54537;47.972;11.662;2023-01-19T05:54:39;16.02;;;6.32;;
66437;SDS011;54537;47.972;11.662;2023-01-19T05:57:05;14.50;;;5.65;;
66437;SDS011;54537;47.972;11.662;2023-01-19T05:59:32;14.77;;;5.75;;
66437;SDS011;54537;47.972;11.662;2023-01-19T06:01:59;16.90;;;6.57;;
66437;SDS011;54537;47.972;11.662;2023-01-19T06:04:27;19.98;;;7.82;;
66437;SDS011;54537;47.972;11.662;2023-01-19T06:06:53;21.80;;;6.47;;
66437;SDS011;54537;47.972;11.662;2023-01-19T06:09:19;16.52;;;6.40;;
66437;SDS011;54537;47.972;11.662;2023-01-19T06:11:46;22.25;;;7.15;;
66437;SDS011;54537;47.972;11.662;2023-01-19T06:14:12;15.18;;;6.68;;
66437;SDS011;54537;47.972;11.662;2023-01-19T06:16:39;19.92;;;6.95;;
66437;SDS011;54537;47.972;11.662;2023-01-19T06:19:06;16.20;;;6.63;;
66437;SDS011;54537;47.972;11.662;2023-01-19T06:21:34;16.00;;;6.05;;
66437;SDS011;54537;47.972;11.662;2023-01-19T06:24:00;20.80;;;6.45;;
66437;SDS011;54537;47.972;11.662;2023-01-19T06:26:27;17.63;;;6.82;;
66437;SDS011;54537;47.972;11.662;2023-01-19T06:28:54;15.98;;;6.70;;
66437;SDS011;54537;47.972;11.662;2023-01-19T06:31:20;14.55;;;6.15;;
66437;SDS011;54537;47.972;11.662;2023-01-19T06:33:46;17.05;;;6.30;;
66437;SDS011;54537;47.972;11.662;2023-01-19T06:36:14;24.27;;;8.70;;
66437;SDS011;54537;47.972;11.662;2023-01-19T06:38:41;22.13;;;8.35;;
66437;SDS011;54537;47.972;11.662;2023-01-19T06:41:08;15.40;;;6.30;;
66437;SDS011;54537;47.972;11.662;2023-01-19T06:43:34;14.68;;;5.03;;
66437;SDS011;54537;47.972;11.662;2023-01-19T06:46:01;16.77;;;6.78;;
66437;SDS011;54537;47.972;11.662;2023-01-19T06:48:28;15.43;;;6.28;;
66437;SDS011;54537;47.972;11.662;2023-01-19T06:50:55;16.15;;;6.85;;
66437;SDS011;54537;47.972;11.662;2023-01-19T06:53:21;15.75;;;6.93;;
66437;SDS011;54537;47.972;11.662;2023-01-19T06:55:49;17.50;;;6.72;;
66437;SDS011;54537;47.972;11.662;2023-01-19T06:58:15;17.23;;;7.10;;
66437;SDS011;54537;47.972;11.662;2023-01-19T07:00:42;22.50;;;7.70;;
66437;SDS011;54537;47.972;11.662;2023-01-19T07:03:10;23.42;;;8.35;;
66437;SDS011;54537;47.972;11.662;2023-01-19T07:05:43;15.10;;;6.70;;
66437;SDS011;54537;47.972;11.662;2023-01-19T07:08:09;19.08;;;7.18;;
66437;SDS011;54537;47.972;11.662;2023-01-19T07:10:36;18.67;;;7.30;;
66437;SDS011;54537;47.972;11.662;2023-01-19T07:13:04;18.35;;;6.97;;
66437;SDS011;54537;47.972;11.662;2023-01-19T07:15:30;15.93;;;6.78;;
66437;SDS011;54537;47.972;11.662;2023-01-19T07:17:57;20.48;;;7.53;;
66437;SDS011;54537;47.972;11.662;2023-01-19T07:20:24;18.20;;;7.05;;
66437;SDS011;54537;47.972;11.662;2023-01-19T07:22:54;20.23;;;7.05;;
66437;SDS011;54537;47.972;11.662;2023-01-19T07:25:21;20.10;;;7.30;;
66437;SDS011;54537;47.972;11.662;2023-01-19T07:27:47;14.40;;;6.30;;
66437;SDS011;54537;47.972;11.662;2023-01-19T07:30:15;16.02;;;6.72;;
66437;SDS011;54537;47.972;11.662;2023-01-19T07:32:42;19.55;;;7.25;;
66437;SDS011;54537;47.972;11.662;2023-01-19T07:35:08;17.90;;;6.57;;
66437;SDS011;54537;47.972;11.662;2023-01-19T07:37:35;17.70;;;6.65;;
66437;SDS011;54537;47.972;11.662;2023-01-19T07:40:02;17.15;;;5.97;;
66437;SDS011;54537;47.972;11.662;2023-01-19T07:42:29;16.75;;;6.90;;
66437;SDS011;54537;47.972;11.662;2023-01-19T07:44:55;18.02;;;6.35;;
66437;SDS011;54537;47.972;11.662;2023-01-19T07:47:23;16.08;;;6.28;;
66437;SDS011;54537;47.972;11.662;2023-01-19T07:49:50;17.05;;;6.40;;
66437;SDS011;54537;47.972;11.662;2023-01-19T07:52:16;16.60;;;6.05;;
66437;SDS011;54537;47.972;11.662;2023-01-19T07:54:43;19.10;;;6.68;;
66437;SDS011;54537;47.972;11.662;2023-01-19T07:57:09;14.18;;;6.00;;
66437;SDS011;54537;47.972;11.662;2023-01-19T07:59:36;18.77;;;6.45;;
66437;SDS011;54537;47.972;11.662;2023-01-19T08:02:02;16.67;;;6.72;;
66437;SDS011;54537;47.972;11.662;2023-01-19T08:04:30;16.90;;;6.45;;
66437;SDS011;54537;47.972;11.662;2023-01-19T08:06:57;16.60;;;6.47;;
66437;SDS011;54537;47.972;11.662;2023-01-19T08:09:23;17.55;;;6.38;;
66437;SDS011;54537;47.972;11.662;2023-01-19T08:11:50;20.40;;;6.93;;
66437;SDS011;54537;47.972;11.662;2023-01-19T08:14:16;20.38;;;6.60;;
66437;SDS011;54537;47.972;11.662;2023-01-19T08:16:43;17.52;;;7.00;;
66437;SDS011;54537;47.972;11.662;2023-01-19T08:19:09;20.70;;;7.68;;
66437;SDS011;54537;47.972;11.662;2023-01-19T08:21:37;17.40;;;7.03;;
66437;SDS011;54537;47.972;11.662;2023-01-19T08:24:04;16.73;;;6.45;;
66437;SDS011;54537;47.972;11.662;2023-01-19T08:26:31;19.67;;;6.78;;
66437;SDS011;54537;47.972;11.662;2023-01-19T08:29:00;14.98;;;6.32;;
66437;SDS011;54537;47.972;11.662;2023-01-19T08:31:27;16.20;;;6.97;;
66437;SDS011;54537;47.972;11.662;2023-01-19T08:33:54;15.52;;;6.65;;
66437;SDS011;54537;47.972;11.662;2023-01-19T08:36:20;18.83;;;6.88;;
66437;SDS011;54537;47.972;11.662;2023-01-19T08:38:50;16.90;;;6.50;;
66437;SDS011;54537;47.972;11.662;2023-01-19T08:41:17;17.23;;;7.03;;
66437;SDS011;54537;47.972;11.662;2023-01-19T08:43:43;17.65;;;7.38;;
66437;SDS011;54537;47.972;11.662;2023-01-19T08:46:10;16.75;;;6.40;;
66437;SDS011;54537;47.972;11.662;2023-01-19T08:48:40;17.35;;;6.65;;
66437;SDS011;54537;47.972;11.662;2023-01-19T08:51:08;20.25;;;6.47;;
66437;SDS011;54537;47.972;11.662;2023-01-19T08:53:34;19.73;;;7.70;;
66437;SDS011;54537;47.972;11.662;2023-01-19T08:56:02;15.25;;;6.75;;
66437;SDS011;54537;47.972;11.662;2023-01-19T08:58:29;19.77;;;7.10;;
66437;SDS011;54537;47.972;11.662;2023-01-19T09:00:58;17.20;;;7.22;;
66437;SDS011;54537;47.972;11.662;2023-01-19T09:03:24;20.70;;;8.02;;
66437;SDS011;54537;47.972;11.662;2023-01-19T09:05:51;17.95;;;6.47;;
66437;SDS011;54537;47.972;11.662;2023-01-19T09:08:17;17.05;;;7.40;;
66437;SDS011;54537;47.972;11.662;2023-01-19T09:10:44;18.13;;;6.97;;
66437;SDS011;54537;47.972;11.662;2023-01-19T09:13:14;19.80;;;7.65;;
66437;SDS011;54537;47.972;11.662;2023-01-19T09:15:41;15.35;;;7.00;;
66437;SDS011;54537;47.972;11.662;2023-01-19T09:18:08;18.38;;;7.70;;
66437;SDS011;54537;47.972;11.662;2023-01-19T09:20:37;15.65;;;6.68;;
66437;SDS011;54537;47.972;11.662;2023-01-19T09:23:04;14.60;;;6.72;;
66437;SDS011;54537;47.972;11.662;2023-01-19T09:25:31;17.38;;;6.57;;
66437;SDS011;54537;47.972;11.662;2023-01-19T09:27:57;17.55;;;7.18;;
66437;SDS011;54537;47.972;11.662;2023-01-19T09:30:25;16.42;;;6.38;;
66437;SDS011;54537;47.972;11.662;2023-01-19T09:32:52;18.60;;;7.13;;
66437;SDS011;54537;47.972;11.662;2023-01-19T09:35:19;18.35;;;6.72;;
66437;SDS011;54537;47.972;11.662;2023-01-19T09:37:46;17.15;;;6.70;;
66437;SDS011;54537;47.972;11.662;2023-01-19T09:40:13;14.57;;;5.97;;
66437;SDS011;54537;47.972;11.662;2023-01-19T09:42:40;20.55;;;7.50;;
66437;SDS011;54537;47.972;11.662;2023-01-19T09:45:11;19.80;;;7.28;;
66437;SDS011;54537;47.972;11.662;2023-01-19T09:47:41;16.33;;;6.18;;
66437;SDS011;54537;47.972;11.662;2023-01-19T09:50:11;17.23;;;6.57;;
66437;SDS011;54537;47.972;11.662;2023-01-19T09:52:41;18.90;;;7.10;;
66437;SDS011;54537;47.972;11.662;2023-01-19T09:55:09;18.23;;;6.47;;
66437;SDS011;54537;47.972;11.662;2023-01-19T09:57:44;19.92;;;7.30;;
66437;SDS011;54537;47.972;11.662;2023-01-19T10:00:12;18.35;;;6.30;;
66437;SDS011;54537;47.972;11.662;2023-01-19T10:02:43;15.50;;;6.22;;
66437;SDS011;54537;47.972;11.662;2023-01-19T10:05:13;16.75;;;5.80;;
66437;SDS011;54537;47.972;11.662;2023-01-19T10:07:52;16.70;;;6.90;;
66437;SDS011;54537;47.972;11.662;2023-01-19T10:10:27;15.48;;;6.30;;
66437;SDS011;54537;47.972;11.662;2023-01-19T10:12:58;15.95;;;6.32;;
66437;SDS011;54537;47.972;11.662;2023-01-19T10:15:31;15.07;;;5.88;;
66437;SDS011;54537;47.972;11.662;2023-01-19T10:18:15;17.83;;;6.35;;
66437;SDS011;54537;47.972;11.662;2023-01-19T10:20:43;12.25;;;5.38;;
66437;SDS011;54537;47.972;11.662;2023-01-19T10:23:18;11.90;;;5.25;;
66437;SDS011;54537;47.972;11.662;2023-01-19T10:25:48;13.95;;;5.88;;
66437;SDS011;54537;47.972;11.662;2023-01-19T10:28:15;14.27;;;6.72;;
66437;SDS011;54537;47.972;11.662;2023-01-19T10:30:48;13.20;;;5.82;;
66437;SDS011;54537;47.972;11.662;2023-01-19T10:33:16;16.45;;;6.20;;
66437;SDS011;54537;47.972;11.662;2023-01-19T10:35:43;13.07;;;5.38;;
66437;SDS011;54537;47.972;11.662;2023-01-19T10:38:12;16.02;;;6.25;;
66437;SDS011;54537;47.972;11.662;2023-01-19T10:40:44;14.15;;;5.38;;
66437;SDS011;54537;47.972;11.662;2023-01-19T10:43:29;12.88;;;5.03;;
66437;SDS011;54537;47.972;11.662;2023-01-19T10:46:00;18.23;;;5.45;;
66437;SDS011;54537;47.972;11.662;2023-01-19T10:48:36;12.15;;;4.90;;
66437;SDS011;54537;47.972;11.662;2023-01-19T10:51:04;15.15;;;5.65;;
66437;SDS011;54537;47.972;11.662;2023-01-19T10:53:31;14.52;;;5.90;;
66437;SDS011;54537;47.972;11.662;2023-01-19T10:56:10;14.60;;;6.07;;
66437;SDS011;54537;47.972;11.662;2023-01-19T10:58:39;15.40;;;6.18;;
66437;SDS011;54537;47.972;11.662;2023-01-19T11:01:16;12.48;;;5.30;;
66437;SDS011;54537;47.972;11.662;2023-01-19T11:03:45;15.00;;;6.18;;
66437;SDS011;54537;47.972;11.662;2023-01-19T11:06:19;14.07;;;5.90;;
66437;SDS011;54537;47.972;11.662;2023-01-19T11:08:48;13.95;;;5.85;;
66437;SDS011;54537;47.972;11.662;2023-01-19T11:11:16;13.32;;;5.72;;
66437;SDS011;54537;47.972;11.662;2023-01-19T11:13:43;13.85;;;5.80;;
66437;SDS011;54537;47.972;11.662;2023-01-19T11:16:13;13.98;;;5.65;;
66437;SDS011;54537;47.972;11.662;2023-01-19T11:18:41;12.23;;;4.75;;
66437;SDS011;54537;47.972;11.662;2023-01-19T11:21:10;13.55;;;5.85;;
66437;SDS011;54537;47.972;11.662;2023-01-19T11:23:38;14.05;;;5.85;;
66437;SDS011;54537;47.972;11.662;2023-01-19T11:26:07;15.60;;;6.35;;
66437;SDS011;54537;47.972;11.662;2023-01-19T11:28:34;14.63;;;5.70;;
66437;SDS011;54537;47.972;11.662;2023-01-19T11:31:02;13.63;;;5.55;;
66437;SDS011;54537;47.972;11.662;2023-01-19T11:33:46;11.88;;;4.88;;
66437;SDS011;54537;47.972;11.662;2023-01-19T11:36:16;7.55;;;3.13;;
66437;SDS011;54537;47.972;11.662;2023-01-19T11:38:45;14.35;;;4.75;;
66437;SDS011;54537;47.972;11.662;2023-01-19T11:41:15;13.15;;;5.50;;
66437;SDS011;54537;47.972;11.662;2023-01-19T11:43:44;12.88;;;5.35;;
66437;SDS011;54537;47.972;11.662;2023-01-19T11:46:11;16.73;;;6.00;;
66437;SDS011;54537;47.972;11.662;2023-01-19T11:48:39;16.90;;;6.38;;
66437;SDS011;54537;47.972;11.662;2023-01-19T11:51:09;13.60;;;5.25;;
66437;SDS011;54537;47.972;11.662;2023-01-19T11:53:40;14.23;;;5.20;;
66437;SDS011;54537;47.972;11.662;2023-01-19T11:56:09;11.18;;;5.10;;
66437;SDS011;54537;47.972;11.662;2023-01-19T11:58:37;12.25;;;5.35;;
66437;SDS011;54537;47.972;11.662;2023-01-19T12:01:05;12.13;;;5.13;;
66437;SDS011;54537;47.972;11.662;2023-01-19T12:03:37;12.07;;;4.50;;
66437;SDS011;54537;47.972;11.662;2023-01-19T12:06:06;12.30;;;4.82;;
66437;SDS011;54537;47.972;11.662;2023-01-19T12:08:38;12.25;;;4.25;;
66437;SDS011;54537;47.972;11.662;2023-01-19T12:11:09;11.05;;;4.13;;
66437;SDS011;54537;47.972;11.662;2023-01-19T12:13:37;10.77;;;4.40;;
66437;SDS011;54537;47.972;11.662;2023-01-19T12:16:06;8.60;;;3.78;;
66437;SDS011;54537;47.972;11.662;2023-01-19T12:18:35;9.73;;;4.03;;
66437;SDS011;54537;47.972;11.662;2023-01-19T12:21:02;10.95;;;4.38;;
66437;SDS011;54537;47.972;11.662;2023-01-19T12:26:27;13.05;;;4.70;;
66437;SDS011;54537;47.972;11.662;2023-01-19T12:28:55;16.50;;;4.72;;
66437;SDS011;54537;47.972;11.662;2023-01-19T12:31:25;13.15;;;5.35;;
66437;SDS011;54537;47.972;11.662;2023-01-19T12:33:51;13.77;;;4.72;;
66437;SDS011;54537;47.972;11.662;2023-01-19T12:36:34;14.10;;;4.18;;
66437;SDS011;54537;47.972;11.662;2023-01-19T12:39:03;15.02;;;4.25;;
66437;SDS011;54537;47.972;11.662;2023-01-19T12:41:32;9.82;;;2.95;;
66437;SDS011;54537;47.972;11.662;2023-01-19T12:44:15;11.45;;;4.07;;
66437;SDS011;54537;47.972;11.662;2023-01-19T12:46:46;11.75;;;3.50;;
66437;SDS011;54537;47.972;11.662;2023-01-19T12:49:17;13.10;;;3.60;;
66437;SDS011;54537;47.972;11.662;2023-01-19T12:51:48;11.57;;;3.80;;
66437;SDS011;54537;47.972;11.662;2023-01-19T12:54:19;12.93;;;3.50;;
66437;SDS011;54537;47.972;11.662;2023-01-19T12:56:54;12.57;;;3.58;;
66437;SDS011;54537;47.972;11.662;2023-01-19T12:59:23;3.92;;;1.92;;
66437;SDS011;54537;47.972;11.662;2023-01-19T13:08:11;10.70;;;3.17;;
66437;SDS011;54537;47.972;11.662;2023-01-19T13:19:15;9.10;;;3.13;;
66437;SDS011;54537;47.972;11.662;2023-01-19T13:21:43;12.18;;;2.92;;
66437;SDS011;54537;47.972;11.662;2023-01-19T13:24:11;10.95;;;3.10;;
66437;SDS011;54537;47.972;11.662;2023-01-19T13:26:41;8.45;;;2.50;;
66437;SDS011;54537;47.972;11.662;2023-01-19T13:29:19;11.88;;;3.05;;
66437;SDS011;54537;47.972;11.662;2023-01-19T13:31:48;15.65;;;3.10;;
66437;SDS011;54537;47.972;11.662;2023-01-19T13:34:17;9.35;;;2.80;;
66437;SDS011;54537;47.972;11.662;2023-01-19T13:36:45;9.05;;;3.65;;
66437;SDS011;54537;47.972;11.662;2023-01-19T13:39:14;12.13;;;3.88;;
66437;SDS011;54537;47.972;11.662;2023-01-19T13:41:43;6.07;;;2.50;;
66437;SDS011;54537;47.972;11.662;2023-01-19T13:44:11;7.60;;;2.30;;
66437;SDS011;54537;47.972;11.662;2023-01-19T13:46:40;10.73;;;2.75;;
66437;SDS011;54537;47.972;11.662;2023-01-19T13:49:11;7.07;;;1.95;;
66437;SDS011;54537;47.972;11.662;2023-01-19T13:51:40;8.68;;;2.92;;
66437;SDS011;54537;47.972;11.662;2023-01-19T13:54:12;6.32;;;2.35;;
66437;SDS011;54537;47.972;11.662;2023-01-19T13:56:45;12.77;;;2.55;;
66437;SDS011;54537;47.972;11.662;2023-01-19T13:59:14;8.13;;;2.40;;
66437;SDS011;54537;47.972;11.662;2023-01-19T14:01:41;9.43;;;3.00;;
66437;SDS011;54537;47.972;11.662;2023-01-19T14:04:24;6.93;;;2.75;;
66437;SDS011;54537;47.972;11.662;2023-01-19T14:06:53;7.60;;;2.53;;
66437;SDS011;54537;47.972;11.662;2023-01-19T14:09:22;10.80;;;3.13;;
66437;SDS011;54537;47.972;11.662;2023-01-19T14:14:37;11.25;;;2.80;;
66437;SDS011;54537;47.972;11.662;2023-01-19T14:17:05;6.50;;;2.85;;
66437;SDS011;54537;47.972;11.662;2023-01-19T14:19:47;8.20;;;2.92;;
66437;SDS011;54537;47.972;11.662;2023-01-19T14:22:14;9.57;;;2.90;;
66437;SDS011;54537;47.972;11.662;2023-01-19T14:24:40;11.60;;;3.10;;
66437;SDS011;54537;47.972;11.662;2023-01-19T14:27:08;10.30;;;3.20;;
66437;SDS011;54537;47.972;11.662;2023-01-19T14:29:42;13.25;;;3.83;;
66437;SDS011;54537;47.972;11.662;2023-01-19T14:32:11;10.88;;;3.70;;
66437;SDS011;54537;47.972;11.662;2023-01-19T14:34:40;9.57;;;3.45;;
66437;SDS011;54537;47.972;11.662;2023-01-19T14:37:14;9.60;;;3.28;;
66437;SDS011;54537;47.972;11.662;2023-01-19T14:39:49;9.40;;;3.90;;
66437;SDS011;54537;47.972;11.662;2023-01-19T14:42:20;17.23;;;4.20;;
66437;SDS011;54537;47.972;11.662;2023-01-19T14:44:50;9.90;;;3.90;;
66437;SDS011;54537;47.972;11.662;2023-01-19T14:47:25;15.18;;;4.07;;
66437;SDS011;54537;47.972;11.662;2023-01-19T14:49:54;10.68;;;3.95;;
66437;SDS011;54537;47.972;11.662;2023-01-19T14:52:23;12.77;;;4.22;;
66437;SDS011;54537;47.972;11.662;2023-01-19T14:54:51;9.68;;;3.45;;
66437;SDS011;54537;47.972;11.662;2023-01-19T14:57:20;12.05;;;3.60;;